createdAt,value
2023-03-25T00:00:00.095Z,97855.38
2023-03-25T00:02:30.424Z,97863.69
2023-03-25T00:05:00.896Z,97854.56
2023-03-25T00:07:27.835Z,97859.91
2023-03-25T00:09:54.583Z,97857.75
2023-03-25T00:12:21.412Z,97856.41
2023-03-25T00:14:58.562Z,97857.75
2023-03-25T00:17:29.238Z,97851.56
2023-03-25T00:19:56.144Z,97840.56
2023-03-25T00:22:23.350Z,97836.53
2023-03-25T00:24:50.358Z,97840.53
2023-03-25T00:27:18.288Z,97831.38
2023-03-25T00:29:45.919Z,97829.47
2023-03-25T00:32:13.975Z,97827.59
2023-03-25T00:34:41.992Z,97811.22
2023-03-25T00:37:09.557Z,97804.25
2023-03-25T00:39:37.664Z,97813.91
2023-03-25T00:42:04.818Z,97807.19
2023-03-25T00:44:32.643Z,97803.94
2023-03-25T00:46:59.650Z,97798.03
2023-03-25T00:49:28.815Z,97797.25
2023-03-25T00:51:56.658Z,97790.25
2023-03-25T00:54:23.789Z,97795.34
2023-03-25T00:56:52.660Z,97795.34
2023-03-25T00:59:19.934Z,97793.22
2023-03-25T01:01:49.581Z,97794.81
2023-03-25T01:04:18.248Z,97785.69
2023-03-25T01:06:45.221Z,97778.19
2023-03-25T01:09:13.934Z,97771.22
2023-03-25T01:11:43.137Z,97776.84
2023-03-25T01:14:17.190Z,97783.34
2023-03-25T01:16:46.855Z,97777.44
2023-03-25T01:19:14.310Z,97780.94
2023-03-25T01:21:41.474Z,97777.44
2023-03-25T01:24:11.589Z,97781.19
2023-03-25T01:26:38.532Z,97782.00
2023-03-25T01:29:05.622Z,97768.31
2023-03-25T01:31:46.452Z,97762.13
2023-03-25T01:34:13.790Z,97758.63
2023-03-25T01:36:41.636Z,97751.91
2023-03-25T01:39:08.989Z,97746.28
2023-03-25T01:41:46.825Z,97742.50
2023-03-25T01:44:19.891Z,97740.09
2023-03-25T01:46:47.291Z,97729.63
2023-03-25T01:49:17.297Z,97735.25
2023-03-25T01:51:48.091Z,97723.19
2023-03-25T01:54:18.164Z,97708.94
2023-03-25T01:56:47.196Z,97706.25
2023-03-25T01:59:17.389Z,97712.44
2023-03-25T02:01:45.804Z,97708.41
2023-03-25T02:04:15.195Z,97704.63
2023-03-25T02:06:53.988Z,97707.59
2023-03-25T02:09:23.145Z,97707.63
2023-03-25T02:11:50.544Z,97711.66
2023-03-25T02:14:22.618Z,97695.78
2023-03-25T02:17:26.424Z,97706.25
2023-03-25T02:20:13.905Z,97706.50
2023-03-25T02:23:03.414Z,97705.97
2023-03-25T02:26:06.039Z,97689.84
2023-03-25T02:28:51.390Z,97682.34
2023-03-25T02:31:29.643Z,97684.75
2023-03-25T02:34:08.256Z,97669.44
2023-03-25T02:36:41.552Z,97661.41
2023-03-25T02:39:19.830Z,97662.19
2023-03-25T02:41:53.402Z,97657.88
2023-03-25T02:44:30.898Z,97634.75
2023-03-25T02:46:59.337Z,97647.91
2023-03-25T02:49:34.000Z,97644.97
2023-03-25T02:52:05.111Z,97645.47
2023-03-25T02:54:34.066Z,97652.72
2023-03-25T02:57:03.922Z,97643.56
2023-03-25T02:59:33.342Z,97643.81
2023-03-25T03:02:03.752Z,97638.16
2023-03-25T03:04:31.295Z,97641.66
2023-03-25T03:06:58.318Z,97633.84
2023-03-25T03:09:31.010Z,97630.88
2023-03-25T03:12:07.647Z,97618.75
2023-03-25T03:14:43.699Z,97625.72
2023-03-25T03:17:33.588Z,97624.09
2023-03-25T03:20:12.789Z,97608.75
2023-03-25T03:22:42.877Z,97604.16
2023-03-25T03:25:15.831Z,97609.22
2023-03-25T03:27:45.998Z,97598.44
2023-03-25T03:30:16.484Z,97583.31
2023-03-25T03:32:43.574Z,97594.34
2023-03-25T03:35:14.577Z,97584.91
2023-03-25T03:37:43.548Z,97572.22
2023-03-25T03:40:13.569Z,97573.84
2023-03-25T03:42:42.844Z,97570.59
2023-03-25T03:45:22.463Z,97571.34
2023-03-25T03:47:51.667Z,97568.31
2023-03-25T03:50:21.218Z,97570.16
2023-03-25T03:53:08.341Z,97555.88
2023-03-25T03:56:01.856Z,97543.47
2023-03-25T03:58:31.415Z,97543.69
2023-03-25T04:01:10.500Z,97539.63
2023-03-25T04:03:41.447Z,97527.47
2023-03-25T04:06:13.580Z,97525.31
2023-03-25T04:08:46.228Z,97527.72
2023-03-25T04:11:17.648Z,97528.75
2023-03-25T04:13:46.942Z,97530.59
2023-03-25T04:16:14.303Z,97534.34
2023-03-25T04:18:41.115Z,97523.81
2023-03-25T04:21:09.948Z,97506.78
2023-03-25T04:23:38.029Z,97500.00
2023-03-25T04:26:04.944Z,97491.06
2023-03-25T04:28:31.928Z,97499.94
2023-03-25T04:31:00.857Z,97498.88
2023-03-25T04:33:32.297Z,97487.50
2023-03-25T04:36:02.222Z,97488.81
2023-03-25T04:38:29.748Z,97487.44
2023-03-25T04:40:58.399Z,97484.47
2023-03-25T04:43:25.302Z,97480.63
2023-03-25T04:45:55.233Z,97470.09
2023-03-25T04:48:24.491Z,97468.13
2023-03-25T04:50:56.022Z,97441.38
2023-03-25T04:53:22.896Z,97449.69
2023-03-25T04:55:50.534Z,97459.91
2023-03-25T04:58:17.671Z,97462.56
2023-03-25T05:00:45.799Z,97452.50
2023-03-25T05:03:12.667Z,97452.41
2023-03-25T05:05:39.589Z,97441.25
2023-03-25T05:08:06.390Z,97437.41
2023-03-25T05:10:34.627Z,97441.66
2023-03-25T05:13:02.569Z,97446.66
2023-03-25T05:15:32.792Z,97457.69
2023-03-25T05:17:59.783Z,97452.56
2023-03-25T05:20:26.583Z,97460.25
2023-03-25T05:22:53.720Z,97457.59
2023-03-25T05:25:23.196Z,97447.59
2023-03-25T05:27:52.481Z,97443.75
2023-03-25T05:30:19.346Z,97452.56
2023-03-25T05:32:50.932Z,97444.69
2023-03-25T05:35:23.543Z,97453.00
2023-03-25T05:37:50.382Z,97445.91
2023-03-25T05:40:17.321Z,97444.22
2023-03-25T05:42:49.072Z,97446.38
2023-03-25T05:45:16.533Z,97439.28
2023-03-25T05:47:44.329Z,97427.59
2023-03-25T05:50:11.308Z,97434.81
2023-03-25T05:52:41.670Z,97434.94
2023-03-25T05:55:14.438Z,97444.31
2023-03-25T05:57:41.382Z,97443.63
2023-03-25T06:00:08.980Z,97430.44
2023-03-25T06:02:39.377Z,97455.91
2023-03-25T06:05:06.684Z,97434.00
2023-03-25T06:07:33.565Z,97432.00
2023-03-25T06:10:00.462Z,97430.88
2023-03-25T06:12:27.720Z,97427.69
2023-03-25T06:14:54.574Z,97436.09
2023-03-25T06:17:24.892Z,97425.66
2023-03-25T06:20:00.702Z,97427.78
2023-03-25T06:22:27.504Z,97429.69
2023-03-25T06:24:54.354Z,97428.66
2023-03-25T06:27:21.400Z,97420.97
2023-03-25T06:29:48.786Z,97434.91
2023-03-25T06:32:16.334Z,97428.81
2023-03-25T06:34:43.600Z,97421.91
2023-03-25T06:37:11.039Z,97425.47
2023-03-25T06:39:38.110Z,97429.41
2023-03-25T06:42:13.121Z,97439.03
2023-03-25T06:45:09.393Z,97429.09
2023-03-25T06:47:41.245Z,97420.31
2023-03-25T06:50:08.595Z,97424.38
2023-03-25T06:52:36.088Z,97421.47
2023-03-25T06:55:03.118Z,97424.19
2023-03-25T06:57:29.955Z,97423.19
2023-03-25T06:59:56.768Z,97429.47
2023-03-25T07:02:23.690Z,97419.66
2023-03-25T07:04:50.746Z,97422.47
2023-03-25T07:07:17.904Z,97415.22
2023-03-25T07:09:44.759Z,97415.53
2023-03-25T07:12:11.643Z,97423.03
2023-03-25T07:14:38.772Z,97413.84
2023-03-25T07:17:06.654Z,97427.06
2023-03-25T07:19:33.743Z,97418.06
2023-03-25T07:22:00.626Z,97417.47
2023-03-25T07:24:27.966Z,97404.47
2023-03-25T07:26:55.211Z,97411.47
2023-03-25T07:29:26.065Z,97414.66
2023-03-25T07:31:53.031Z,97410.88
2023-03-25T07:34:19.936Z,97411.88
2023-03-25T07:36:47.065Z,97409.38
2023-03-25T07:39:13.925Z,97393.34
2023-03-25T07:41:42.252Z,97411.47
2023-03-25T07:44:12.737Z,97421.97
2023-03-25T07:46:39.934Z,97420.38
2023-03-25T07:49:06.820Z,97428.47
2023-03-25T07:51:35.234Z,97422.78
2023-03-25T07:54:05.096Z,97427.88
2023-03-25T07:56:32.479Z,97423.56
2023-03-25T07:59:00.516Z,97416.56
2023-03-25T08:01:30.722Z,97420.06
2023-03-25T08:04:17.174Z,97418.09
2023-03-25T08:06:44.119Z,97422.00
2023-03-25T08:09:11.184Z,97428.59
2023-03-25T08:11:38.943Z,97429.41
2023-03-25T08:14:09.460Z,97439.72
2023-03-25T08:16:36.426Z,97447.13
2023-03-25T08:19:03.543Z,97445.03
2023-03-25T08:21:30.566Z,97449.13
2023-03-25T08:24:02.582Z,97448.63
2023-03-25T08:26:30.485Z,97453.00
2023-03-25T08:29:02.922Z,97452.81
2023-03-25T08:31:33.592Z,97441.50
2023-03-25T08:34:02.845Z,97450.72
2023-03-25T08:36:29.796Z,97453.09
2023-03-25T08:38:57.056Z,97440.91
2023-03-25T08:41:25.021Z,97441.94
2023-03-25T08:43:51.824Z,97452.63
2023-03-25T08:46:18.733Z,97457.44
2023-03-25T08:48:50.318Z,97454.63
2023-03-25T08:51:17.308Z,97445.31
2023-03-25T08:53:44.147Z,97459.53
2023-03-25T08:56:11.349Z,97461.66
2023-03-25T08:58:41.042Z,97458.66
2023-03-25T09:01:12.281Z,97465.38
2023-03-25T09:03:43.538Z,97463.47
2023-03-25T09:06:10.467Z,97452.84
2023-03-25T09:08:37.626Z,97448.13
2023-03-25T09:11:06.640Z,97445.00
2023-03-25T09:13:33.410Z,97448.91
2023-03-25T09:16:00.343Z,97452.50
2023-03-25T09:18:27.505Z,97453.19
2023-03-25T09:20:58.472Z,97449.25
2023-03-25T09:23:28.011Z,97451.84
2023-03-25T09:25:55.385Z,97451.78
2023-03-25T09:28:25.129Z,97468.69
2023-03-25T09:30:52.060Z,97460.56
2023-03-25T09:33:19.410Z,97453.56
2023-03-25T09:35:47.484Z,97458.84
2023-03-25T09:38:14.418Z,97473.38
2023-03-25T09:40:42.273Z,97479.91
2023-03-25T09:43:24.488Z,97477.19
2023-03-25T09:45:52.256Z,97479.97
2023-03-25T09:48:36.558Z,97486.88
2023-03-25T09:51:05.953Z,97481.84
2023-03-25T09:53:44.965Z,97478.88
2023-03-25T09:56:18.053Z,97470.13
2023-03-25T09:58:49.621Z,97488.28
2023-03-25T10:01:28.002Z,97496.72
2023-03-25T10:04:01.349Z,97495.91
2023-03-25T10:06:30.441Z,97496.50
2023-03-25T10:09:00.026Z,97499.81
2023-03-25T10:11:45.153Z,97488.50
2023-03-25T10:14:19.866Z,97467.50
2023-03-25T10:16:49.862Z,97478.63
2023-03-25T10:19:25.378Z,97485.41
2023-03-25T10:21:56.313Z,97486.56
2023-03-25T10:24:27.502Z,97483.13
2023-03-25T10:27:01.193Z,97485.69
2023-03-25T10:29:38.049Z,97490.81
2023-03-25T10:32:13.541Z,97488.41
2023-03-25T10:34:43.114Z,97488.84
2023-03-25T10:37:12.741Z,97487.38
2023-03-25T10:39:44.238Z,97479.25
2023-03-25T10:42:30.432Z,97467.47
2023-03-25T10:44:57.619Z,97494.63
2023-03-25T10:47:29.429Z,97491.78
2023-03-25T10:49:59.567Z,97491.38
2023-03-25T10:52:26.684Z,97487.09
2023-03-25T10:54:54.803Z,97478.22
2023-03-25T10:57:31.888Z,97478.28
2023-03-25T11:00:21.041Z,97490.28
2023-03-25T11:02:48.278Z,97495.06
2023-03-25T11:05:18.990Z,97485.81
2023-03-25T11:08:14.616Z,97486.75
2023-03-25T11:10:47.977Z,97492.81
2023-03-25T11:13:16.961Z,97487.50
2023-03-25T11:15:44.247Z,97481.59
2023-03-25T11:18:14.180Z,97488.31
2023-03-25T11:20:48.104Z,97483.06
2023-03-25T11:23:33.906Z,97489.78
2023-03-25T11:26:08.623Z,97482.44
2023-03-25T11:28:35.547Z,97484.06
2023-03-25T11:31:06.869Z,97493.78
2023-03-25T11:33:33.787Z,97483.75
2023-03-25T11:36:20.829Z,97474.81
2023-03-25T11:38:51.389Z,97474.81
2023-03-25T11:41:21.447Z,97486.75
2023-03-25T11:43:51.089Z,97493.31
2023-03-25T11:46:18.964Z,97495.22
2023-03-25T11:48:46.954Z,97482.75
2023-03-25T11:51:15.726Z,97487.69
2023-03-25T11:53:47.215Z,97496.47
2023-03-25T11:56:17.396Z,97483.31
2023-03-25T11:58:44.427Z,97486.00
2023-03-25T12:01:24.959Z,97492.34
2023-03-25T12:04:10.674Z,97502.84
2023-03-25T12:06:37.645Z,97501.84
2023-03-25T12:09:08.474Z,97507.38
2023-03-25T12:11:44.744Z,97518.03
2023-03-25T12:14:17.756Z,97513.25
2023-03-25T12:16:44.797Z,97504.31
2023-03-25T12:19:34.669Z,97504.31
2023-03-25T12:22:10.418Z,97499.06
2023-03-25T12:24:37.354Z,97513.28
2023-03-25T12:27:22.901Z,97511.06
2023-03-25T12:30:08.525Z,97503.94
2023-03-25T12:32:35.351Z,97508.63
2023-03-25T12:35:05.420Z,97500.84
2023-03-25T12:37:32.434Z,97497.38
2023-03-25T12:40:05.499Z,97490.72
2023-03-25T12:42:55.380Z,97485.16
2023-03-25T12:45:25.722Z,97482.63
2023-03-25T12:47:59.834Z,97497.16
2023-03-25T12:50:35.372Z,97491.88
2023-03-25T12:53:17.485Z,97498.06
2023-03-25T12:55:44.366Z,97508.84
2023-03-25T12:58:28.115Z,97494.00
2023-03-25T13:01:01.176Z,97490.66
2023-03-25T13:03:28.230Z,97491.78
2023-03-25T13:06:01.531Z,97480.63
2023-03-25T13:08:47.305Z,97484.63
2023-03-25T13:11:16.920Z,97489.41
2023-03-25T13:13:46.365Z,97481.78
2023-03-25T13:16:18.551Z,97489.63
2023-03-25T13:18:48.576Z,97487.22
2023-03-25T13:21:27.335Z,97491.22
2023-03-25T13:24:00.382Z,97496.31
2023-03-25T13:26:29.725Z,97490.41
2023-03-25T13:29:05.591Z,97481.28
2023-03-25T13:31:35.750Z,97487.00
2023-03-25T13:34:08.501Z,97468.22
2023-03-25T13:36:42.766Z,97479.44
2023-03-25T13:39:20.926Z,97494.75
2023-03-25T13:41:56.882Z,97499.38
2023-03-25T13:44:33.997Z,97504.00
2023-03-25T13:47:04.942Z,97498.41
2023-03-25T13:49:37.828Z,97499.69
2023-03-25T13:54:52.300Z,97504.81
2023-03-25T13:57:37.678Z,97510.56
2023-03-25T14:00:10.169Z,97503.22
2023-03-25T14:03:07.081Z,97494.13
2023-03-25T14:05:44.260Z,97493.19
2023-03-25T14:08:33.032Z,97493.69
2023-03-25T14:11:02.766Z,97496.06
2023-03-25T14:13:32.622Z,97493.19
2023-03-25T14:16:06.299Z,97490.31
2023-03-25T14:18:39.693Z,97492.34
2023-03-25T14:21:15.735Z,97501.44
2023-03-25T14:23:44.547Z,97504.28
2023-03-25T14:26:12.134Z,97503.28
2023-03-25T14:28:42.785Z,97503.91
2023-03-25T14:31:12.740Z,97496.88
2023-03-25T14:34:02.203Z,97505.50
2023-03-25T14:36:30.080Z,97494.78
2023-03-25T14:38:57.860Z,97502.13
2023-03-25T14:41:43.626Z,97495.09
2023-03-25T14:44:20.134Z,97509.91
2023-03-25T14:46:47.069Z,97533.94
2023-03-25T14:49:22.450Z,97526.53
2023-03-25T14:51:56.776Z,97526.66
2023-03-25T14:54:32.877Z,97524.88
2023-03-25T14:57:14.977Z,97525.50
2023-03-25T14:59:43.843Z,97523.09
2023-03-25T15:02:31.102Z,97525.63
2023-03-25T15:04:58.338Z,97525.13
2023-03-25T15:07:45.746Z,97525.13
2023-03-25T15:10:33.104Z,97531.16
2023-03-25T15:13:01.943Z,97520.91
2023-03-25T15:15:30.725Z,97519.94
2023-03-25T15:18:00.127Z,97526.75
2023-03-25T15:20:28.917Z,97532.00
2023-03-25T15:23:28.235Z,97528.31
2023-03-25T15:25:56.386Z,97540.06
2023-03-25T15:28:42.059Z,97539.03
2023-03-25T15:31:20.420Z,97539.34
2023-03-25T15:33:57.963Z,97531.84
2023-03-25T15:36:33.525Z,97542.66
2023-03-25T15:39:18.877Z,97536.22
2023-03-25T15:41:46.858Z,97547.66
2023-03-25T15:44:31.365Z,97547.19
2023-03-25T15:47:07.180Z,97553.19
2023-03-25T15:50:01.312Z,97546.78
2023-03-25T15:52:45.721Z,97549.00
2023-03-25T15:55:14.845Z,97550.91
2023-03-25T15:57:44.668Z,97558.53
2023-03-25T16:00:20.848Z,97554.22
2023-03-25T16:03:14.201Z,97555.03
2023-03-25T16:05:47.228Z,97558.84
2023-03-25T16:08:17.785Z,97566.16
2023-03-25T16:10:46.877Z,97564.06
2023-03-25T16:13:33.113Z,97559.44
2023-03-25T16:16:00.309Z,97569.78
2023-03-25T16:18:29.703Z,97578.19
2023-03-25T16:20:58.522Z,97576.88
2023-03-25T16:23:29.713Z,97571.47
2023-03-25T16:25:59.604Z,97567.75
2023-03-25T16:28:28.939Z,97568.84
2023-03-25T16:30:56.241Z,97571.06
2023-03-25T16:33:27.345Z,97572.78
2023-03-25T16:36:02.020Z,97581.50
2023-03-25T16:38:29.403Z,97577.50
2023-03-25T16:41:01.084Z,97574.28
2023-03-25T16:43:31.319Z,97576.00
2023-03-25T16:46:02.404Z,97582.00
2023-03-25T16:48:33.622Z,97581.47
2023-03-25T16:51:06.244Z,97583.97
2023-03-25T16:53:36.428Z,97586.47
2023-03-25T16:56:05.287Z,97584.97
2023-03-25T16:58:34.152Z,97590.19
2023-03-25T17:01:03.358Z,97598.41
2023-03-25T17:03:47.191Z,97587.38
2023-03-25T17:06:22.733Z,97596.06
2023-03-25T17:09:02.006Z,97597.47
2023-03-25T17:11:30.413Z,97618.59
2023-03-25T17:14:08.721Z,97618.59
2023-03-25T17:16:40.105Z,97622.69
2023-03-25T17:19:14.222Z,97630.00
2023-03-25T17:21:59.091Z,97626.00
2023-03-25T17:24:26.844Z,97633.28
2023-03-25T17:27:04.204Z,97629.00
2023-03-25T17:29:33.770Z,97638.19
2023-03-25T17:32:03.221Z,97647.13
2023-03-25T17:34:32.232Z,97644.13
2023-03-25T17:37:08.717Z,97650.03
2023-03-25T17:39:36.524Z,97648.34
2023-03-25T17:42:09.134Z,97651.25
2023-03-25T17:44:39.045Z,97660.16
2023-03-25T17:47:27.449Z,97646.63
2023-03-25T17:49:54.482Z,97658.00
2023-03-25T17:52:23.604Z,97658.00
2023-03-25T17:54:53.802Z,97658.00
2023-03-25T17:57:21.180Z,97657.19
2023-03-25T17:59:48.227Z,97666.66
2023-03-25T18:02:16.602Z,97663.16
2023-03-25T18:04:43.839Z,97664.56
2023-03-25T18:07:13.249Z,97662.16
2023-03-25T18:09:41.317Z,97672.47
2023-03-25T18:12:08.604Z,97675.75
2023-03-25T18:14:38.792Z,97679.56
2023-03-25T18:17:06.041Z,97681.75
2023-03-25T18:19:35.924Z,97682.06
2023-03-25T18:22:13.908Z,97681.56
2023-03-25T18:24:49.852Z,97693.75
2023-03-25T18:27:16.737Z,97680.03
2023-03-25T18:29:46.157Z,97683.81
2023-03-25T18:32:14.139Z,97686.53
2023-03-25T18:34:41.374Z,97681.72
2023-03-25T18:37:10.031Z,97686.59
2023-03-25T18:39:39.484Z,97679.28
2023-03-25T18:42:09.765Z,97674.16
2023-03-25T18:44:38.790Z,97684.16
2023-03-25T18:47:06.654Z,97682.56
2023-03-25T18:49:33.991Z,97684.16
2023-03-25T18:52:02.670Z,97682.78
2023-03-25T18:54:29.478Z,97685.22
2023-03-25T18:56:56.955Z,97679.22
2023-03-25T18:59:27.540Z,97698.06
2023-03-25T19:01:54.424Z,97687.16
2023-03-25T19:04:27.123Z,97684.97
2023-03-25T19:06:55.804Z,97688.78
2023-03-25T19:09:23.733Z,97686.88
2023-03-25T19:11:50.982Z,97694.69
2023-03-25T19:14:17.862Z,97686.28
2023-03-25T19:17:01.039Z,97692.78
2023-03-25T19:19:30.477Z,97684.97
2023-03-25T19:21:57.318Z,97681.97
2023-03-25T19:24:24.105Z,97686.56
2023-03-25T19:26:54.639Z,97690.59
2023-03-25T19:29:26.728Z,97692.50
2023-03-25T19:31:53.634Z,97682.78
2023-03-25T19:34:25.267Z,97690.09
2023-03-25T19:36:53.404Z,97686.28
2023-03-25T19:39:23.034Z,97692.50
2023-03-25T19:41:53.035Z,97696.00
2023-03-25T19:44:19.983Z,97694.91
2023-03-25T19:46:47.225Z,97694.41
2023-03-25T19:49:25.904Z,97691.97
2023-03-25T19:51:59.635Z,97698.19
2023-03-25T19:54:27.389Z,97693.59
2023-03-25T19:56:56.159Z,97688.97
2023-03-25T19:59:25.538Z,97689.28
2023-03-25T20:01:53.287Z,97686.06
2023-03-25T20:04:20.187Z,97686.38
2023-03-25T20:06:47.083Z,97693.66
2023-03-25T20:09:14.577Z,97699.88
2023-03-25T20:11:43.191Z,97701.78
2023-03-25T20:14:10.387Z,97696.97
2023-03-25T20:16:39.261Z,97698.34
2023-03-25T20:19:06.313Z,97697.84
2023-03-25T20:21:39.144Z,97698.16
2023-03-25T20:24:06.028Z,97700.63
2023-03-25T20:26:35.391Z,97701.69
2023-03-25T20:29:02.701Z,97700.41
2023-03-25T20:31:29.594Z,97700.69
2023-03-25T20:33:56.536Z,97702.59
2023-03-25T20:36:23.347Z,97709.88
2023-03-25T20:38:57.705Z,97706.38
2023-03-25T20:41:25.700Z,97716.69
2023-03-25T20:43:52.632Z,97711.56
2023-03-25T20:46:23.922Z,97709.16
2023-03-25T20:48:53.985Z,97714.88
2023-03-25T20:51:24.045Z,97709.75
2023-03-25T20:53:52.142Z,97709.47
2023-03-25T20:56:21.673Z,97711.34
2023-03-25T20:58:48.747Z,97712.97
2023-03-25T21:01:18.675Z,97704.06
2023-03-25T21:03:48.309Z,97702.75
2023-03-25T21:06:24.104Z,97706.84
2023-03-25T21:08:56.033Z,97709.31
2023-03-25T21:11:25.268Z,97708.81
2023-03-25T21:13:52.113Z,97703.69
2023-03-25T21:16:18.951Z,97699.09
2023-03-25T21:18:47.716Z,97707.50
2023-03-25T21:21:19.711Z,97696.97
2023-03-25T21:23:46.919Z,97695.38
2023-03-25T21:26:16.493Z,97699.44
2023-03-25T21:28:44.875Z,97703.00
2023-03-25T21:31:22.272Z,97705.19
2023-03-25T21:33:52.521Z,97703.88
2023-03-25T21:36:21.360Z,97702.56
2023-03-25T21:38:50.510Z,97707.16
2023-03-25T21:41:17.648Z,97709.88
2023-03-25T21:43:47.664Z,97707.97
2023-03-25T21:46:17.283Z,97705.28
2023-03-25T21:48:46.808Z,97703.66
2023-03-25T21:51:16.734Z,97703.97
2023-03-25T21:53:46.272Z,97718.56
2023-03-25T21:56:15.566Z,97716.16
2023-03-25T21:58:44.474Z,97719.13
2023-03-25T22:01:16.952Z,97714.03
2023-03-25T22:03:46.800Z,97724.31
2023-03-25T22:06:15.109Z,97721.91
2023-03-25T22:08:42.162Z,97726.81
2023-03-25T22:11:11.608Z,97725.19
2023-03-25T22:13:41.568Z,97721.94
2023-03-25T22:16:11.131Z,97723.84
2023-03-25T22:18:41.625Z,97719.53
2023-03-25T22:21:29.721Z,97721.16
2023-03-25T22:24:00.380Z,97716.84
2023-03-25T22:26:30.834Z,97714.13
2023-03-25T22:29:00.718Z,97710.63
2023-03-25T22:31:31.371Z,97718.16
2023-03-25T22:34:10.872Z,97708.19
2023-03-25T22:36:40.983Z,97701.44
2023-03-25T22:39:12.168Z,97712.53
2023-03-25T22:41:41.665Z,97708.22
2023-03-25T22:44:08.426Z,97703.38
2023-03-25T22:46:35.580Z,97697.16
2023-03-25T22:49:07.171Z,97705.25
2023-03-25T22:51:35.525Z,97690.38
2023-03-25T22:54:05.480Z,97694.97
2023-03-25T22:56:35.265Z,97690.38
2023-03-25T22:59:06.056Z,97695.25
2023-03-25T23:01:33.423Z,97695.56
2023-03-25T23:04:03.381Z,97698.53
2023-03-25T23:06:31.725Z,97686.44
2023-03-25T23:09:04.146Z,97692.91
2023-03-25T23:11:33.541Z,97681.31
2023-03-25T23:14:02.945Z,97680.81
2023-03-25T23:16:34.042Z,97685.41
2023-03-25T23:19:02.070Z,97678.41
2023-03-25T23:21:29.990Z,97681.09
2023-03-25T23:24:04.663Z,97681.38
2023-03-25T23:26:40.045Z,97678.16
2023-03-25T23:29:09.318Z,97675.75
2023-03-25T23:31:36.976Z,97674.44
2023-03-25T23:34:11.034Z,97671.50
2023-03-25T23:36:38.511Z,97680.69
2023-03-25T23:39:09.488Z,97678.84
2023-03-25T23:41:36.538Z,97674.84
2023-03-25T23:44:04.849Z,97677.53
2023-03-25T23:46:31.852Z,97678.03
2023-03-25T23:49:04.693Z,97679.13
2023-03-25T23:51:36.762Z,97679.44
2023-03-25T23:54:06.528Z,97679.44
2023-03-25T23:56:34.063Z,97682.69
2023-03-25T23:59:01.640Z,97679.19
